sensor_id;sensor_type;location;lat;lon;timestamp;P1;durP1;ratioP1;P2;durP2;ratioP2
60016;SDS011;45869;52.698;6.210;2022-09-21T00:02:15;5.43;;;3.15;;
60016;SDS011;45869;52.698;6.210;2022-09-21T00:04:41;6.05;;;3.35;;
60016;SDS011;45869;52.698;6.210;2022-09-21T00:07:07;6.95;;;3.70;;
60016;SDS011;45869;52.698;6.210;2022-09-21T00:09:33;5.43;;;3.25;;
60016;SDS011;45869;52.698;6.210;2022-09-21T00:11:59;5.97;;;3.15;;
60016;SDS011;45869;52.698;6.210;2022-09-21T00:14:26;7.30;;;3.28;;
60016;SDS011;45869;52.698;6.210;2022-09-21T00:16:52;4.85;;;3.15;;
60016;SDS011;45869;52.698;6.210;2022-09-21T00:19:18;5.75;;;3.28;;
60016;SDS011;45869;52.698;6.210;2022-09-21T00:21:44;6.97;;;2.92;;
60016;SDS011;45869;52.698;6.210;2022-09-21T00:24:13;5.82;;;3.00;;
60016;SDS011;45869;52.698;6.210;2022-09-21T00:26:42;6.28;;;3.38;;
60016;SDS011;45869;52.698;6.210;2022-09-21T00:29:08;5.75;;;3.15;;
60016;SDS011;45869;52.698;6.210;2022-09-21T00:31:35;7.47;;;3.42;;
60016;SDS011;45869;52.698;6.210;2022-09-21T00:34:01;7.57;;;3.00;;
60016;SDS011;45869;52.698;6.210;2022-09-21T00:36:27;5.10;;;3.08;;
60016;SDS011;45869;52.698;6.210;2022-09-21T00:38:55;5.65;;;3.58;;
60016;SDS011;45869;52.698;6.210;2022-09-21T00:41:22;5.60;;;3.33;;
60016;SDS011;45869;52.698;6.210;2022-09-21T00:44:33;5.43;;;2.95;;
60016;SDS011;45869;52.698;6.210;2022-09-21T00:46:34;5.97;;;3.22;;
60016;SDS011;45869;52.698;6.210;2022-09-21T00:49:03;5.20;;;3.03;;
60016;SDS011;45869;52.698;6.210;2022-09-21T00:51:29;4.38;;;2.65;;
60016;SDS011;45869;52.698;6.210;2022-09-21T00:54:00;5.55;;;3.25;;
60016;SDS011;45869;52.698;6.210;2022-09-21T00:56:27;4.60;;;3.17;;
60016;SDS011;45869;52.698;6.210;2022-09-21T00:58:57;5.10;;;2.70;;
60016;SDS011;45869;52.698;6.210;2022-09-21T01:01:26;4.80;;;2.80;;
60016;SDS011;45869;52.698;6.210;2022-09-21T01:03:52;4.93;;;2.85;;
60016;SDS011;45869;52.698;6.210;2022-09-21T01:06:21;7.63;;;3.08;;
60016;SDS011;45869;52.698;6.210;2022-09-21T01:08:50;5.32;;;2.90;;
60016;SDS011;45869;52.698;6.210;2022-09-21T01:17:22;4.88;;;2.45;;
60016;SDS011;45869;52.698;6.210;2022-09-21T01:22:14;5.95;;;3.47;;
60016;SDS011;45869;52.698;6.210;2022-09-21T01:24:49;6.03;;;3.17;;
60016;SDS011;45869;52.698;6.210;2022-09-21T01:30:08;6.22;;;3.08;;
60016;SDS011;45869;52.698;6.210;2022-09-21T01:32:38;6.65;;;3.30;;
60016;SDS011;45869;52.698;6.210;2022-09-21T01:35:11;4.57;;;3.13;;
60016;SDS011;45869;52.698;6.210;2022-09-21T01:37:46;6.03;;;3.15;;
60016;SDS011;45869;52.698;6.210;2022-09-21T01:40:17;6.13;;;2.92;;
60016;SDS011;45869;52.698;6.210;2022-09-21T01:42:46;4.75;;;3.10;;
60016;SDS011;45869;52.698;6.210;2022-09-21T01:45:14;4.75;;;2.92;;
60016;SDS011;45869;52.698;6.210;2022-09-21T01:47:41;5.38;;;2.53;;
60016;SDS011;45869;52.698;6.210;2022-09-21T01:50:08;6.07;;;2.70;;
60016;SDS011;45869;52.698;6.210;2022-09-21T01:52:41;4.22;;;2.65;;
60016;SDS011;45869;52.698;6.210;2022-09-21T01:55:14;5.55;;;3.00;;
60016;SDS011;45869;52.698;6.210;2022-09-21T01:57:43;7.57;;;3.35;;
60016;SDS011;45869;52.698;6.210;2022-09-21T02:00:11;5.47;;;3.40;;
60016;SDS011;45869;52.698;6.210;2022-09-21T02:05:06;4.95;;;2.97;;
60016;SDS011;45869;52.698;6.210;2022-09-21T02:07:33;6.00;;;3.67;;
60016;SDS011;45869;52.698;6.210;2022-09-21T02:10:00;6.18;;;3.38;;
60016;SDS011;45869;52.698;6.210;2022-09-21T02:12:27;5.53;;;3.13;;
60016;SDS011;45869;52.698;6.210;2022-09-21T02:14:55;5.32;;;3.13;;
60016;SDS011;45869;52.698;6.210;2022-09-21T02:25:19;6.00;;;3.20;;
60016;SDS011;45869;52.698;6.210;2022-09-21T02:27:49;5.72;;;3.40;;
60016;SDS011;45869;52.698;6.210;2022-09-21T02:30:19;7.88;;;3.50;;
60016;SDS011;45869;52.698;6.210;2022-09-21T02:33:00;5.50;;;3.30;;
60016;SDS011;45869;52.698;6.210;2022-09-21T02:35:30;5.50;;;3.42;;
60016;SDS011;45869;52.698;6.210;2022-09-21T02:42:54;6.03;;;2.95;;
60016;SDS011;45869;52.698;6.210;2022-09-21T02:45:22;6.13;;;2.75;;
60016;SDS011;45869;52.698;6.210;2022-09-21T02:47:53;5.18;;;3.10;;
60016;SDS011;45869;52.698;6.210;2022-09-21T02:50:24;6.03;;;3.15;;
60016;SDS011;45869;52.698;6.210;2022-09-21T02:53:01;5.70;;;3.10;;
60016;SDS011;45869;52.698;6.210;2022-09-21T02:55:29;4.88;;;2.53;;
60016;SDS011;45869;52.698;6.210;2022-09-21T02:57:56;7.05;;;3.08;;
60016;SDS011;45869;52.698;6.210;2022-09-21T03:00:24;5.38;;;3.22;;
60016;SDS011;45869;52.698;6.210;2022-09-21T03:02:51;5.95;;;2.83;;
60016;SDS011;45869;52.698;6.210;2022-09-21T03:05:17;5.43;;;3.05;;
60016;SDS011;45869;52.698;6.210;2022-09-21T03:07:43;5.68;;;2.85;;
60016;SDS011;45869;52.698;6.210;2022-09-21T03:10:09;4.88;;;3.08;;
60016;SDS011;45869;52.698;6.210;2022-09-21T03:12:35;5.53;;;2.95;;
60016;SDS011;45869;52.698;6.210;2022-09-21T03:15:01;4.35;;;2.80;;
60016;SDS011;45869;52.698;6.210;2022-09-21T03:17:27;4.25;;;2.60;;
60016;SDS011;45869;52.698;6.210;2022-09-21T03:19:56;5.25;;;2.80;;
60016;SDS011;45869;52.698;6.210;2022-09-21T03:22:22;4.20;;;2.65;;
60016;SDS011;45869;52.698;6.210;2022-09-21T03:24:49;5.93;;;2.65;;
60016;SDS011;45869;52.698;6.210;2022-09-21T03:27:16;5.07;;;2.60;;
60016;SDS011;45869;52.698;6.210;2022-09-21T03:29:42;5.28;;;2.85;;
60016;SDS011;45869;52.698;6.210;2022-09-21T03:32:08;5.47;;;3.00;;
60016;SDS011;45869;52.698;6.210;2022-09-21T03:34:34;4.43;;;2.60;;
60016;SDS011;45869;52.698;6.210;2022-09-21T03:37:01;5.00;;;2.50;;
60016;SDS011;45869;52.698;6.210;2022-09-21T03:39:27;5.30;;;2.60;;
60016;SDS011;45869;52.698;6.210;2022-09-21T03:41:53;6.65;;;2.72;;
60016;SDS011;45869;52.698;6.210;2022-09-21T03:44:22;4.10;;;2.55;;
60016;SDS011;45869;52.698;6.210;2022-09-21T03:46:48;5.63;;;2.13;;
60016;SDS011;45869;52.698;6.210;2022-09-21T03:49:15;5.22;;;2.72;;
60016;SDS011;45869;52.698;6.210;2022-09-21T03:51:41;5.28;;;2.70;;
60016;SDS011;45869;52.698;6.210;2022-09-21T03:54:07;5.25;;;2.88;;
60016;SDS011;45869;52.698;6.210;2022-09-21T03:56:33;4.95;;;2.63;;
60016;SDS011;45869;52.698;6.210;2022-09-21T03:58:59;5.43;;;2.83;;
60016;SDS011;45869;52.698;6.210;2022-09-21T04:01:25;5.07;;;2.60;;
60016;SDS011;45869;52.698;6.210;2022-09-21T04:03:51;4.88;;;2.80;;
60016;SDS011;45869;52.698;6.210;2022-09-21T04:06:17;5.80;;;2.60;;
60016;SDS011;45869;52.698;6.210;2022-09-21T04:08:44;4.78;;;2.72;;
60016;SDS011;45869;52.698;6.210;2022-09-21T04:11:14;4.72;;;2.58;;
60016;SDS011;45869;52.698;6.210;2022-09-21T04:13:41;3.70;;;2.60;;
60016;SDS011;45869;52.698;6.210;2022-09-21T04:16:07;4.88;;;2.65;;
60016;SDS011;45869;52.698;6.210;2022-09-21T04:18:36;4.40;;;2.58;;
60016;SDS011;45869;52.698;6.210;2022-09-21T04:21:03;4.30;;;2.38;;
60016;SDS011;45869;52.698;6.210;2022-09-21T04:23:30;4.53;;;2.55;;
60016;SDS011;45869;52.698;6.210;2022-09-21T04:25:56;4.65;;;2.70;;
60016;SDS011;45869;52.698;6.210;2022-09-21T04:28:22;5.00;;;2.70;;
60016;SDS011;45869;52.698;6.210;2022-09-21T04:30:51;3.95;;;2.78;;
60016;SDS011;45869;52.698;6.210;2022-09-21T04:33:18;3.10;;;2.08;;
60016;SDS011;45869;52.698;6.210;2022-09-21T04:35:44;3.72;;;2.30;;
60016;SDS011;45869;52.698;6.210;2022-09-21T04:38:10;4.32;;;2.40;;
60016;SDS011;45869;52.698;6.210;2022-09-21T04:40:37;3.33;;;2.38;;
60016;SDS011;45869;52.698;6.210;2022-09-21T04:43:03;4.63;;;2.50;;
60016;SDS011;45869;52.698;6.210;2022-09-21T04:45:32;3.42;;;2.10;;
60016;SDS011;45869;52.698;6.210;2022-09-21T04:47:58;4.75;;;2.60;;
60016;SDS011;45869;52.698;6.210;2022-09-21T04:50:24;3.75;;;2.55;;
60016;SDS011;45869;52.698;6.210;2022-09-21T04:52:50;5.55;;;2.55;;
60016;SDS011;45869;52.698;6.210;2022-09-21T04:55:16;3.85;;;2.50;;
60016;SDS011;45869;52.698;6.210;2022-09-21T04:57:45;4.70;;;2.30;;
60016;SDS011;45869;52.698;6.210;2022-09-21T05:03:02;4.47;;;2.30;;
60016;SDS011;45869;52.698;6.210;2022-09-21T05:05:28;4.07;;;2.40;;
60016;SDS011;45869;52.698;6.210;2022-09-21T05:07:54;4.60;;;2.47;;
60016;SDS011;45869;52.698;6.210;2022-09-21T05:10:20;5.65;;;3.20;;
60016;SDS011;45869;52.698;6.210;2022-09-21T05:12:46;4.97;;;2.50;;
60016;SDS011;45869;52.698;6.210;2022-09-21T05:15:12;4.22;;;2.42;;
60016;SDS011;45869;52.698;6.210;2022-09-21T05:17:39;5.00;;;2.53;;
60016;SDS011;45869;52.698;6.210;2022-09-21T05:20:05;3.78;;;2.45;;
60016;SDS011;45869;52.698;6.210;2022-09-21T05:22:31;5.57;;;2.65;;
60016;SDS011;45869;52.698;6.210;2022-09-21T05:24:57;4.22;;;2.42;;
60016;SDS011;45869;52.698;6.210;2022-09-21T05:27:23;4.72;;;2.83;;
60016;SDS011;45869;52.698;6.210;2022-09-21T05:29:49;4.63;;;2.90;;
60016;SDS011;45869;52.698;6.210;2022-09-21T05:34:44;4.93;;;2.75;;
60016;SDS011;45869;52.698;6.210;2022-09-21T05:38:15;4.43;;;2.78;;
60016;SDS011;45869;52.698;6.210;2022-09-21T05:40:10;5.07;;;2.80;;
60016;SDS011;45869;52.698;6.210;2022-09-21T05:42:36;5.55;;;2.97;;
60016;SDS011;45869;52.698;6.210;2022-09-21T05:45:03;6.75;;;3.25;;
60016;SDS011;45869;52.698;6.210;2022-09-21T05:47:37;3.90;;;2.58;;
60016;SDS011;45869;52.698;6.210;2022-09-21T05:53:11;7.95;;;3.50;;
60016;SDS011;45869;52.698;6.210;2022-09-21T06:03:33;5.20;;;3.40;;
60016;SDS011;45869;52.698;6.210;2022-09-21T06:06:03;6.47;;;3.60;;
60016;SDS011;45869;52.698;6.210;2022-09-21T06:08:29;4.97;;;3.20;;
60016;SDS011;45869;52.698;6.210;2022-09-21T06:10:55;4.80;;;3.10;;
60016;SDS011;45869;52.698;6.210;2022-09-21T06:13:21;6.10;;;3.35;;
60016;SDS011;45869;52.698;6.210;2022-09-21T06:15:47;5.03;;;3.72;;
60016;SDS011;45869;52.698;6.210;2022-09-21T06:18:13;6.05;;;3.50;;
60016;SDS011;45869;52.698;6.210;2022-09-21T06:20:39;8.70;;;3.83;;
60016;SDS011;45869;52.698;6.210;2022-09-21T06:23:09;6.75;;;3.75;;
60016;SDS011;45869;52.698;6.210;2022-09-21T06:25:35;5.30;;;3.40;;
60016;SDS011;45869;52.698;6.210;2022-09-21T06:28:05;6.13;;;3.70;;
60016;SDS011;45869;52.698;6.210;2022-09-21T06:30:32;4.57;;;3.40;;
60016;SDS011;45869;52.698;6.210;2022-09-21T06:33:20;6.28;;;3.50;;
60016;SDS011;45869;52.698;6.210;2022-09-21T06:36:05;5.03;;;3.10;;
60016;SDS011;45869;52.698;6.210;2022-09-21T06:38:31;4.95;;;3.10;;
60016;SDS011;45869;52.698;6.210;2022-09-21T06:41:02;6.95;;;4.20;;
60016;SDS011;45869;52.698;6.210;2022-09-21T06:43:29;6.32;;;3.90;;
60016;SDS011;45869;52.698;6.210;2022-09-21T06:45:56;7.78;;;4.80;;
60016;SDS011;45869;52.698;6.210;2022-09-21T06:48:22;8.45;;;4.90;;
60016;SDS011;45869;52.698;6.210;2022-09-21T06:50:49;8.13;;;5.50;;
60016;SDS011;45869;52.698;6.210;2022-09-21T06:53:18;8.23;;;4.50;;
60016;SDS011;45869;52.698;6.210;2022-09-21T06:55:44;9.30;;;5.88;;
60016;SDS011;45869;52.698;6.210;2022-09-21T06:58:10;7.43;;;5.30;;
60016;SDS011;45869;52.698;6.210;2022-09-21T07:00:36;8.55;;;6.00;;
60016;SDS011;45869;52.698;6.210;2022-09-21T07:03:02;8.43;;;6.18;;
60016;SDS011;45869;52.698;6.210;2022-09-21T07:05:28;8.15;;;6.70;;
60016;SDS011;45869;52.698;6.210;2022-09-21T07:07:57;10.32;;;6.50;;
60016;SDS011;45869;52.698;6.210;2022-09-21T07:10:26;9.48;;;4.65;;
60016;SDS011;45869;52.698;6.210;2022-09-21T07:12:52;9.40;;;5.97;;
60016;SDS011;45869;52.698;6.210;2022-09-21T07:15:18;8.77;;;5.78;;
60016;SDS011;45869;52.698;6.210;2022-09-21T07:17:45;7.70;;;4.60;;
60016;SDS011;45869;52.698;6.210;2022-09-21T07:20:14;11.13;;;5.65;;
60016;SDS011;45869;52.698;6.210;2022-09-21T07:22:40;6.82;;;4.97;;
60016;SDS011;45869;52.698;6.210;2022-09-21T07:25:06;10.68;;;5.63;;
60016;SDS011;45869;52.698;6.210;2022-09-21T07:27:33;8.88;;;5.95;;
60016;SDS011;45869;52.698;6.210;2022-09-21T07:30:02;11.38;;;6.78;;
60016;SDS011;45869;52.698;6.210;2022-09-21T07:32:28;11.55;;;7.97;;
60016;SDS011;45869;52.698;6.210;2022-09-21T07:34:55;12.02;;;7.05;;
60016;SDS011;45869;52.698;6.210;2022-09-21T07:37:24;11.07;;;6.13;;
60016;SDS011;45869;52.698;6.210;2022-09-21T07:39:54;9.02;;;5.72;;
60016;SDS011;45869;52.698;6.210;2022-09-21T07:42:23;10.88;;;5.78;;
60016;SDS011;45869;52.698;6.210;2022-09-21T07:44:50;8.50;;;4.53;;
60016;SDS011;45869;52.698;6.210;2022-09-21T07:47:18;7.78;;;5.45;;
60016;SDS011;45869;52.698;6.210;2022-09-21T07:49:44;9.88;;;5.20;;
60016;SDS011;45869;52.698;6.210;2022-09-21T07:52:11;8.68;;;5.40;;
60016;SDS011;45869;52.698;6.210;2022-09-21T07:54:37;8.45;;;5.13;;
60016;SDS011;45869;52.698;6.210;2022-09-21T07:57:03;7.32;;;4.57;;
60016;SDS011;45869;52.698;6.210;2022-09-21T07:59:47;8.10;;;4.13;;
60016;SDS011;45869;52.698;6.210;2022-09-21T08:02:13;10.13;;;4.38;;
60016;SDS011;45869;52.698;6.210;2022-09-21T08:04:39;7.20;;;4.15;;
60016;SDS011;45869;52.698;6.210;2022-09-21T08:07:05;7.30;;;4.10;;
60016;SDS011;45869;52.698;6.210;2022-09-21T08:09:32;8.50;;;4.15;;
60016;SDS011;45869;52.698;6.210;2022-09-21T08:11:58;8.18;;;4.40;;
60016;SDS011;45869;52.698;6.210;2022-09-21T08:14:27;8.18;;;4.10;;
60016;SDS011;45869;52.698;6.210;2022-09-21T08:16:53;8.18;;;3.80;;
60016;SDS011;45869;52.698;6.210;2022-09-21T08:19:19;8.77;;;4.35;;
60016;SDS011;45869;52.698;6.210;2022-09-21T08:21:49;8.82;;;3.97;;
60016;SDS011;45869;52.698;6.210;2022-09-21T08:24:19;10.45;;;4.07;;
60016;SDS011;45869;52.698;6.210;2022-09-21T08:26:45;6.60;;;3.80;;
60016;SDS011;45869;52.698;6.210;2022-09-21T08:29:12;7.97;;;4.00;;
60016;SDS011;45869;52.698;6.210;2022-09-21T08:31:38;7.03;;;3.70;;
60016;SDS011;45869;52.698;6.210;2022-09-21T08:34:04;6.18;;;3.60;;
60016;SDS011;45869;52.698;6.210;2022-09-21T08:36:30;9.18;;;4.05;;
60016;SDS011;45869;52.698;6.210;2022-09-21T08:38:56;7.63;;;4.13;;
60016;SDS011;45869;52.698;6.210;2022-09-21T08:47:03;8.35;;;3.78;;
60016;SDS011;45869;52.698;6.210;2022-09-21T08:49:32;7.28;;;3.70;;
60016;SDS011;45869;52.698;6.210;2022-09-21T08:52:01;9.45;;;3.85;;
60016;SDS011;45869;52.698;6.210;2022-09-21T08:54:33;10.40;;;3.90;;
60016;SDS011;45869;52.698;6.210;2022-09-21T08:57:03;7.88;;;4.00;;
60016;SDS011;45869;52.698;6.210;2022-09-21T08:59:29;7.50;;;2.90;;
60016;SDS011;45869;52.698;6.210;2022-09-21T09:14:47;5.85;;;1.73;;
60016;SDS011;45869;52.698;6.210;2022-09-21T09:17:18;5.35;;;1.40;;
60016;SDS011;45869;52.698;6.210;2022-09-21T09:19:53;3.97;;;1.42;;
60016;SDS011;45869;52.698;6.210;2022-09-21T09:22:24;5.70;;;1.67;;
60016;SDS011;45869;52.698;6.210;2022-09-21T09:24:52;5.57;;;1.25;;
60016;SDS011;45869;52.698;6.210;2022-09-21T09:27:38;6.55;;;1.45;;
60016;SDS011;45869;52.698;6.210;2022-09-21T09:30:19;8.38;;;1.35;;
60016;SDS011;45869;52.698;6.210;2022-09-21T09:33:05;4.82;;;1.23;;
60016;SDS011;45869;52.698;6.210;2022-09-21T09:35:38;7.72;;;1.45;;
60016;SDS011;45869;52.698;6.210;2022-09-21T09:38:10;7.20;;;1.38;;
60016;SDS011;45869;52.698;6.210;2022-09-21T09:46:17;4.88;;;0.90;;
60016;SDS011;45869;52.698;6.210;2022-09-21T09:48:49;3.53;;;0.60;;
60016;SDS011;45869;52.698;6.210;2022-09-21T09:51:16;5.78;;;1.02;;
60016;SDS011;45869;52.698;6.210;2022-09-21T09:53:43;9.02;;;1.05;;
60016;SDS011;45869;52.698;6.210;2022-09-21T09:56:09;4.88;;;0.80;;
60016;SDS011;45869;52.698;6.210;2022-09-21T09:58:44;7.40;;;0.85;;
60016;SDS011;45869;52.698;6.210;2022-09-21T10:01:34;7.07;;;0.77;;
60016;SDS011;45869;52.698;6.210;2022-09-21T10:04:11;4.50;;;0.70;;
60016;SDS011;45869;52.698;6.210;2022-09-21T10:06:37;3.58;;;0.70;;
60016;SDS011;45869;52.698;6.210;2022-09-21T10:09:26;5.10;;;0.60;;
60016;SDS011;45869;52.698;6.210;2022-09-21T10:11:54;6.63;;;0.88;;
60016;SDS011;45869;52.698;6.210;2022-09-21T10:14:21;5.28;;;0.70;;
60016;SDS011;45869;52.698;6.210;2022-09-21T10:16:49;5.88;;;0.90;;
60016;SDS011;45869;52.698;6.210;2022-09-21T10:19:23;3.58;;;0.73;;
60016;SDS011;45869;52.698;6.210;2022-09-21T10:21:59;7.13;;;0.93;;
60016;SDS011;45869;52.698;6.210;2022-09-21T10:24:36;5.18;;;0.70;;
60016;SDS011;45869;52.698;6.210;2022-09-21T10:27:12;2.25;;;0.45;;
60016;SDS011;45869;52.698;6.210;2022-09-21T10:34:40;3.00;;;0.43;;
60016;SDS011;45869;52.698;6.210;2022-09-21T10:37:23;4.20;;;0.60;;
60016;SDS011;45869;52.698;6.210;2022-09-21T10:39:50;2.97;;;0.52;;
60016;SDS011;45869;52.698;6.210;2022-09-21T10:42:19;4.55;;;0.68;;
60016;SDS011;45869;52.698;6.210;2022-09-21T10:44:46;3.70;;;0.55;;
60016;SDS011;45869;52.698;6.210;2022-09-21T10:47:20;5.13;;;0.80;;
60016;SDS011;45869;52.698;6.210;2022-09-21T10:49:48;4.68;;;0.60;;
60016;SDS011;45869;52.698;6.210;2022-09-21T10:52:15;4.05;;;0.50;;
60016;SDS011;45869;52.698;6.210;2022-09-21T10:54:43;5.40;;;0.80;;
60016;SDS011;45869;52.698;6.210;2022-09-21T10:57:13;4.75;;;0.57;;
60016;SDS011;45869;52.698;6.210;2022-09-21T10:59:40;3.53;;;0.60;;
60016;SDS011;45869;52.698;6.210;2022-09-21T11:04:52;4.65;;;0.70;;
60016;SDS011;45869;52.698;6.210;2022-09-21T11:07:27;4.90;;;0.70;;
60016;SDS011;45869;52.698;6.210;2022-09-21T11:17:50;4.35;;;0.60;;
60016;SDS011;45869;52.698;6.210;2022-09-21T11:22:48;9.25;;;0.95;;
60016;SDS011;45869;52.698;6.210;2022-09-21T11:25:25;3.05;;;0.65;;
60016;SDS011;45869;52.698;6.210;2022-09-21T11:27:58;3.40;;;0.60;;
60016;SDS011;45869;52.698;6.210;2022-09-21T11:30:25;6.13;;;0.55;;
60016;SDS011;45869;52.698;6.210;2022-09-21T11:35:38;4.10;;;0.57;;
60016;SDS011;45869;52.698;6.210;2022-09-21T11:38:30;5.10;;;0.70;;
60016;SDS011;45869;52.698;6.210;2022-09-21T11:41:09;4.15;;;0.52;;
60016;SDS011;45869;52.698;6.210;2022-09-21T11:57:02;4.57;;;0.43;;
60016;SDS011;45869;52.698;6.210;2022-09-21T11:59:52;4.28;;;0.57;;
60016;SDS011;45869;52.698;6.210;2022-09-21T12:02:25;4.88;;;0.57;;
60016;SDS011;45869;52.698;6.210;2022-09-21T12:04:54;3.03;;;0.60;;
60016;SDS011;45869;52.698;6.210;2022-09-21T12:07:26;5.35;;;0.70;;
60016;SDS011;45869;52.698;6.210;2022-09-21T12:10:06;5.05;;;0.68;;
60016;SDS011;45869;52.698;6.210;2022-09-21T12:12:41;3.47;;;0.50;;
60016;SDS011;45869;52.698;6.210;2022-09-21T12:18:00;4.03;;;0.52;;
60016;SDS011;45869;52.698;6.210;2022-09-21T12:22:48;3.90;;;0.40;;
60016;SDS011;45869;52.698;6.210;2022-09-21T12:25:19;3.90;;;0.47;;
60016;SDS011;45869;52.698;6.210;2022-09-21T12:27:49;2.83;;;0.50;;
60016;SDS011;45869;52.698;6.210;2022-09-21T12:30:17;3.13;;;0.40;;
60016;SDS011;45869;52.698;6.210;2022-09-21T12:35:18;2.63;;;0.40;;
60016;SDS011;45869;52.698;6.210;2022-09-21T12:37:46;3.15;;;0.50;;
60016;SDS011;45869;52.698;6.210;2022-09-21T12:40:22;2.28;;;0.50;;
60016;SDS011;45869;52.698;6.210;2022-09-21T12:45:55;5.57;;;0.50;;
60016;SDS011;45869;52.698;6.210;2022-09-21T12:48:28;2.67;;;0.40;;
60016;SDS011;45869;52.698;6.210;2022-09-21T12:51:01;2.88;;;0.25;;
60016;SDS011;45869;52.698;6.210;2022-09-21T12:53:30;4.32;;;0.60;;
60016;SDS011;45869;52.698;6.210;2022-09-21T13:06:41;2.60;;;0.63;;
60016;SDS011;45869;52.698;6.210;2022-09-21T13:09:11;2.88;;;0.40;;
60016;SDS011;45869;52.698;6.210;2022-09-21T13:11:48;3.40;;;0.40;;
60016;SDS011;45869;52.698;6.210;2022-09-21T13:14:19;2.85;;;0.30;;
60016;SDS011;45869;52.698;6.210;2022-09-21T13:16:48;2.67;;;0.43;;
60016;SDS011;45869;52.698;6.210;2022-09-21T13:19:21;4.45;;;0.75;;
60016;SDS011;45869;52.698;6.210;2022-09-21T13:25:00;4.30;;;0.50;;
60016;SDS011;45869;52.698;6.210;2022-09-21T13:30:45;3.28;;;0.55;;
60016;SDS011;45869;52.698;6.210;2022-09-21T13:38:33;3.42;;;0.45;;
60016;SDS011;45869;52.698;6.210;2022-09-21T13:48:57;1.52;;;0.20;;
60016;SDS011;45869;52.698;6.210;2022-09-21T13:51:24;3.60;;;0.30;;
60016;SDS011;45869;52.698;6.210;2022-09-21T13:53:53;4.70;;;0.50;;
60016;SDS011;45869;52.698;6.210;2022-09-21T13:56:22;2.90;;;0.30;;
60016;SDS011;45869;52.698;6.210;2022-09-21T13:58:50;3.05;;;0.40;;
60016;SDS011;45869;52.698;6.210;2022-09-21T14:01:20;3.67;;;0.30;;
60016;SDS011;45869;52.698;6.210;2022-09-21T14:06:17;2.97;;;0.32;;
60016;SDS011;45869;52.698;6.210;2022-09-21T14:08:49;3.63;;;0.40;;
60016;SDS011;45869;52.698;6.210;2022-09-21T14:11:22;2.65;;;0.30;;
60016;SDS011;45869;52.698;6.210;2022-09-21T14:18:58;3.10;;;0.30;;
60016;SDS011;45869;52.698;6.210;2022-09-21T14:21:24;2.55;;;0.43;;
60016;SDS011;45869;52.698;6.210;2022-09-21T14:26:33;1.77;;;0.35;;
60016;SDS011;45869;52.698;6.210;2022-09-21T14:29:09;2.67;;;0.40;;
60016;SDS011;45869;52.698;6.210;2022-09-21T14:31:41;2.38;;;0.30;;
60016;SDS011;45869;52.698;6.210;2022-09-21T14:34:11;4.03;;;0.43;;
60016;SDS011;45869;52.698;6.210;2022-09-21T14:36:44;2.97;;;0.57;;
60016;SDS011;45869;52.698;6.210;2022-09-21T14:39:56;3.15;;;0.35;;
60016;SDS011;45869;52.698;6.210;2022-09-21T14:42:06;2.97;;;0.55;;
60016;SDS011;45869;52.698;6.210;2022-09-21T14:44:36;4.60;;;0.55;;
60016;SDS011;45869;52.698;6.210;2022-09-21T14:49:49;2.78;;;0.45;;
60016;SDS011;45869;52.698;6.210;2022-09-21T15:00:40;2.38;;;0.50;;
60016;SDS011;45869;52.698;6.210;2022-09-21T15:03:54;4.53;;;0.52;;
60016;SDS011;45869;52.698;6.210;2022-09-21T15:11:35;2.45;;;0.40;;
60016;SDS011;45869;52.698;6.210;2022-09-21T15:21:38;2.97;;;0.50;;
60016;SDS011;45869;52.698;6.210;2022-09-21T15:24:17;2.70;;;0.40;;
60016;SDS011;45869;52.698;6.210;2022-09-21T15:26:54;2.17;;;0.40;;
60016;SDS011;45869;52.698;6.210;2022-09-21T15:29:29;2.58;;;0.32;;
60016;SDS011;45869;52.698;6.210;2022-09-21T15:31:59;2.25;;;0.50;;
60016;SDS011;45869;52.698;6.210;2022-09-21T15:34:26;4.45;;;0.82;;
60016;SDS011;45869;52.698;6.210;2022-09-21T15:36:52;3.95;;;0.50;;
60016;SDS011;45869;52.698;6.210;2022-09-21T15:39:40;3.72;;;0.40;;
60016;SDS011;45869;52.698;6.210;2022-09-21T15:44:35;2.83;;;0.30;;
60016;SDS011;45869;52.698;6.210;2022-09-21T15:47:01;4.53;;;0.45;;
60016;SDS011;45869;52.698;6.210;2022-09-21T15:49:28;4.07;;;0.40;;
60016;SDS011;45869;52.698;6.210;2022-09-21T15:52:08;6.38;;;0.50;;
60016;SDS011;45869;52.698;6.210;2022-09-21T15:59:54;3.75;;;0.45;;
60016;SDS011;45869;52.698;6.210;2022-09-21T16:02:23;1.77;;;0.20;;
60016;SDS011;45869;52.698;6.210;2022-09-21T16:04:50;3.97;;;0.45;;
60016;SDS011;45869;52.698;6.210;2022-09-21T16:07:24;1.52;;;0.30;;
60016;SDS011;45869;52.698;6.210;2022-09-21T16:15:04;3.22;;;0.40;;
60016;SDS011;45869;52.698;6.210;2022-09-21T16:17:34;1.73;;;0.30;;
60016;SDS011;45869;52.698;6.210;2022-09-21T16:22:39;2.53;;;0.40;;
60016;SDS011;45869;52.698;6.210;2022-09-21T16:27:53;4.72;;;0.47;;
60016;SDS011;45869;52.698;6.210;2022-09-21T16:35:50;2.50;;;0.30;;
60016;SDS011;45869;52.698;6.210;2022-09-21T16:38:16;2.45;;;0.30;;
60016;SDS011;45869;52.698;6.210;2022-09-21T16:40:45;3.40;;;0.50;;
60016;SDS011;45869;52.698;6.210;2022-09-21T16:43:11;4.63;;;0.40;;
60016;SDS011;45869;52.698;6.210;2022-09-21T16:45:37;2.58;;;0.50;;
60016;SDS011;45869;52.698;6.210;2022-09-21T16:48:03;1.67;;;0.40;;
60016;SDS011;45869;52.698;6.210;2022-09-21T16:50:32;2.55;;;0.35;;
60016;SDS011;45869;52.698;6.210;2022-09-21T16:52:58;3.33;;;0.50;;
60016;SDS011;45869;52.698;6.210;2022-09-21T16:55:24;2.03;;;0.30;;
60016;SDS011;45869;52.698;6.210;2022-09-21T16:57:53;1.80;;;0.35;;
60016;SDS011;45869;52.698;6.210;2022-09-21T17:00:19;1.98;;;0.40;;
60016;SDS011;45869;52.698;6.210;2022-09-21T17:02:46;2.35;;;0.40;;
60016;SDS011;45869;52.698;6.210;2022-09-21T17:05:13;4.30;;;0.55;;
60016;SDS011;45869;52.698;6.210;2022-09-21T17:07:47;5.53;;;0.60;;
60016;SDS011;45869;52.698;6.210;2022-09-21T17:10:13;3.30;;;0.40;;
60016;SDS011;45869;52.698;6.210;2022-09-21T17:12:40;3.28;;;0.52;;
60016;SDS011;45869;52.698;6.210;2022-09-21T17:15:07;1.83;;;0.45;;
60016;SDS011;45869;52.698;6.210;2022-09-21T17:17:34;3.25;;;0.40;;
60016;SDS011;45869;52.698;6.210;2022-09-21T17:20:01;5.40;;;0.47;;
60016;SDS011;45869;52.698;6.210;2022-09-21T17:22:27;3.92;;;0.50;;
60016;SDS011;45869;52.698;6.210;2022-09-21T17:24:54;2.28;;;0.40;;
60016;SDS011;45869;52.698;6.210;2022-09-21T17:27:21;3.70;;;0.63;;
60016;SDS011;45869;52.698;6.210;2022-09-21T17:29:48;5.85;;;0.70;;
60016;SDS011;45869;52.698;6.210;2022-09-21T17:32:15;4.22;;;0.82;;
60016;SDS011;45869;52.698;6.210;2022-09-21T17:34:44;4.38;;;0.70;;
60016;SDS011;45869;52.698;6.210;2022-09-21T17:37:10;1.88;;;0.50;;
60016;SDS011;45869;52.698;6.210;2022-09-21T17:39:36;2.55;;;0.52;;
60016;SDS011;45869;52.698;6.210;2022-09-21T17:42:04;4.20;;;0.60;;
60016;SDS011;45869;52.698;6.210;2022-09-21T17:44:43;3.30;;;0.70;;
60016;SDS011;45869;52.698;6.210;2022-09-21T17:47:16;3.55;;;0.90;;
60016;SDS011;45869;52.698;6.210;2022-09-21T17:49:43;4.00;;;0.60;;
60016;SDS011;45869;52.698;6.210;2022-09-21T17:52:14;3.13;;;0.68;;
60016;SDS011;45869;52.698;6.210;2022-09-21T17:55:00;3.03;;;0.60;;
60016;SDS011;45869;52.698;6.210;2022-09-21T18:00:26;3.38;;;0.60;;
60016;SDS011;45869;52.698;6.210;2022-09-21T18:02:58;2.22;;;0.60;;
60016;SDS011;45869;52.698;6.210;2022-09-21T18:05:25;2.58;;;0.88;;
60016;SDS011;45869;52.698;6.210;2022-09-21T18:07:51;5.72;;;0.93;;
60016;SDS011;45869;52.698;6.210;2022-09-21T18:10:18;3.80;;;0.90;;
60016;SDS011;45869;52.698;6.210;2022-09-21T18:25:54;3.10;;;0.70;;
60016;SDS011;45869;52.698;6.210;2022-09-21T18:33:57;5.20;;;0.75;;
60016;SDS011;45869;52.698;6.210;2022-09-21T18:36:30;4.47;;;0.80;;
60016;SDS011;45869;52.698;6.210;2022-09-21T18:41:47;3.08;;;0.70;;
60016;SDS011;45869;52.698;6.210;2022-09-21T18:44:26;4.00;;;0.80;;
60016;SDS011;45869;52.698;6.210;2022-09-21T18:54:45;3.85;;;0.93;;